Time;durP1;ratioP1;P1;durP2;ratioP2;P2;SDS_P1;SDS_P2;PMS_P1;PMS_P2;Temp;Humidity;BMP_temperature;BMP_pressure;BME280_temperature;BME280_humidity;BME280_pressure;Samples;Min_cycle;Max_cycle;Signal;HPM_P1;HPM_P2
2023/06/06 00:03:51;;;;;;;;;;;14.60;96.40;;;;;;8442366;28;19947;-72
2023/06/06 00:07:53;;;;;;;;;;;14.60;96.50;;;;;;8434321;28;19931;-72
2023/06/06 00:27:06;;;;;;;;;;;14.30;96.60;;;;;;8448438;28;20609;-73
2023/06/06 00:35:28;;;;;;;;;;;14.20;96.70;;;;;;8447410;28;19928;-72
2023/06/06 00:39:30;;;;;;;;;;;14.20;96.80;;;;;;8452341;28;19931;-72
2023/06/06 00:43:32;;;;;;;;;;;14.20;96.70;;;;;;8451339;28;19967;-72
2023/06/06 00:47:34;;;;;;;;;;;14.10;96.70;;;;;;8448390;28;20366;-72
2023/06/06 00:51:36;;;;;;;;;;;14.10;96.80;;;;;;8448488;28;19959;-72
2023/06/06 00:55:39;;;;;;;;;;;14.00;96.80;;;;;;8434621;28;20005;-72
2023/06/06 00:59:41;;;;;;;;;;;14.10;96.80;;;;;;8421687;28;20331;-73
2023/06/06 01:03:44;;;;;;;;;;;14.10;96.80;;;;;;8431535;28;19968;-73
2023/06/06 01:08:04;;;;;;;;;;;14.10;96.60;;;;;;8412814;28;19927;-73
2023/06/06 01:12:07;;;;;;;;;;;14.00;96.60;;;;;;8406362;28;19974;-72
2023/06/06 01:16:28;;;;;;;;;;;13.90;96.60;;;;;;8424424;28;20389;-72
2023/06/06 01:25:34;;;;;;;;;;;13.80;96.60;;;;;;8432569;28;19965;-73
2023/06/06 01:29:35;;;;;;;;;;;13.80;96.70;;;;;;8450428;28;19924;-72
2023/06/06 01:43:18;;;;;;;;;;;13.60;96.70;;;;;;8430579;28;19959;-72
2023/06/06 01:47:38;;;;;;;;;;;13.50;96.70;;;;;;8433932;28;20003;-73
2023/06/06 01:51:40;;;;;;;;;;;13.50;96.70;;;;;;8428497;28;20032;-72
2023/06/06 01:55:41;;;;;;;;;;;13.50;96.80;;;;;;8452235;28;19976;-72
2023/06/06 01:59:43;;;;;;;;;;;13.40;96.90;;;;;;8446773;28;19939;-73
2023/06/06 02:13:47;;;;;;;;;;;13.40;96.80;;;;;;8386414;28;20376;-72
2023/06/06 02:18:06;;;;;;;;;;;13.30;96.90;;;;;;8412442;28;19919;-73
2023/06/06 02:22:08;;;;;;;;;;;13.30;96.90;;;;;;8405958;28;20331;-72
2023/06/06 02:26:10;;;;;;;;;;;13.20;96.90;;;;;;8412812;28;19929;-72
2023/06/06 02:30:12;;;;;;;;;;;13.20;97.00;;;;;;8395984;28;19924;-72
2023/06/06 02:34:32;;;;;;;;;;;13.10;97.00;;;;;;8412420;28;19932;-73
2023/06/06 02:38:34;;;;;;;;;;;13.10;97.00;;;;;;8379596;28;19932;-72
2023/06/06 02:42:38;;;;;;;;;;;13.10;97.00;;;;;;8404995;28;19931;-73
2023/06/06 02:46:57;;;;;;;;;;;13.00;97.00;;;;;;8382536;28;19919;-73
2023/06/06 02:50:59;;;;;;;;;;;13.00;97.00;;;;;;8387139;28;20398;-73
2023/06/06 02:55:19;;;;;;;;;;;13.00;97.10;;;;;;8398790;28;20295;-73
2023/06/06 02:59:21;;;;;;;;;;;13.00;97.10;;;;;;8391184;28;20337;-72
2023/06/06 03:03:24;;;;;;;;;;;13.00;97.40;;;;;;8418960;28;19924;-72
2023/06/06 03:07:43;;;;;;;;;;;13.00;97.10;;;;;;8377017;28;19920;-72
2023/06/06 03:11:45;;;;;;;;;;;12.90;97.20;;;;;;8412301;28;20376;-72
2023/06/06 03:15:46;;;;;;;;;;;13.00;97.10;;;;;;8426388;28;19931;-72
2023/06/06 03:19:48;;;;;;;;;;;12.90;97.00;;;;;;8423208;28;20493;-73
2023/06/06 03:38:18;;;;;;;;;;;12.70;97.10;;;;;;8434217;28;20467;-73
2023/06/06 03:42:19;;;;;;;;;;;12.70;97.20;;;;;;8425176;27;20430;-72
2023/06/06 03:50:41;;;;;;;;;;;12.60;97.40;;;;;;8426593;28;19932;-72
2023/06/06 03:54:43;;;;;;;;;;;12.60;97.40;;;;;;8436917;28;19924;-73
2023/06/06 03:58:46;;;;;;;;;;;12.70;97.40;;;;;;8456886;27;19928;-72
2023/06/06 04:02:48;;;;;;;;;;;12.70;97.40;;;;;;8439298;28;19969;-72
2023/06/06 04:06:50;;;;;;;;;;;12.70;97.50;;;;;;8421415;28;19924;-73
2023/06/06 04:10:52;;;;;;;;;;;12.70;97.50;;;;;;8428621;28;19925;-72
2023/06/06 04:14:54;;;;;;;;;;;12.70;97.60;;;;;;8428932;28;19933;-72
2023/06/06 04:18:56;;;;;;;;;;;12.80;97.80;;;;;;8427551;28;20356;-73
2023/06/06 04:23:00;;;;;;;;;;;12.80;97.80;;;;;;8441961;28;19924;-73
2023/06/06 04:27:03;;;;;;;;;;;12.90;97.80;;;;;;8439735;28;19984;-72
2023/06/06 04:31:23;;;;;;;;;;;12.90;97.90;;;;;;8420137;28;20421;-73
2023/06/06 04:40:32;;;;;;;;;;;13.00;98.10;;;;;;8427223;28;20487;-72
2023/06/06 04:44:49;;;;;;;;;;;13.00;98.20;;;;;;8411452;28;19925;-73
2023/06/06 04:48:53;;;;;;;;;;;13.00;98.20;;;;;;8459448;28;19923;-73
2023/06/06 04:57:59;;;;;;;;;;;13.10;98.50;;;;;;8435423;28;19962;-72
2023/06/06 05:07:04;;;;;;;;;;;13.20;98.90;;;;;;8418198;28;19962;-72
2023/06/06 05:11:08;;;;;;;;;;;13.40;99.00;;;;;;8453273;28;20004;-74
2023/06/06 05:15:10;;;;;;;;;;;13.50;99.10;;;;;;8432598;28;19930;-72
2023/06/06 05:19:14;;;;;;;;;;;13.50;99.20;;;;;;8413092;28;19990;-72
2023/06/06 05:23:34;;;;;;;;;;;13.60;99.40;;;;;;8411561;28;19969;-73
2023/06/06 05:27:36;;;;;;;;;;;13.60;99.50;;;;;;8431670;28;20362;-72
2023/06/06 05:31:57;;;;;;;;;;;13.70;99.70;;;;;;8428165;28;19936;-72
2023/06/06 05:35:59;;;;;;;;;;;13.80;99.80;;;;;;8417760;28;19928;-73
2023/06/06 05:40:00;;;;;;;;;;;13.90;99.90;;;;;;8431278;28;19927;-72
2023/06/06 05:44:02;;;;;;;;;;;14.00;99.90;;;;;;8430901;28;19931;-73
2023/06/06 05:48:04;;;;;;;;;;;14.10;99.90;;;;;;8439874;28;19928;-73
2023/06/06 05:52:24;;;;;;;;;;;14.20;99.90;;;;;;8418107;28;19924;-72
2023/06/06 05:56:27;;;;;;;;;;;14.20;99.90;;;;;;8416660;28;19985;-72
2023/06/06 06:05:08;;;;;;;;;;;14.40;99.90;;;;;;8410372;28;19986;-72
2023/06/06 06:09:10;;;;;;;;;;;14.50;99.90;;;;;;8418906;28;20356;-72
2023/06/06 06:13:13;;;;;;;;;;;14.60;99.90;;;;;;8414435;28;19924;-73
2023/06/06 06:21:36;;;;;;;;;;;14.80;99.90;;;;;;8420337;28;19935;-72
2023/06/06 06:25:38;;;;;;;;;;;14.90;99.90;;;;;;8417478;28;19931;-72
2023/06/06 06:29:40;;;;;;;;;;;15.00;99.90;;;;;;8424938;28;19954;-73
2023/06/06 06:33:42;;;;;;;;;;;15.10;99.90;;;;;;8432165;28;19923;-72
2023/06/06 06:37:43;;;;;;;;;;;15.20;99.90;;;;;;8418027;28;19935;-72
2023/06/06 06:41:46;;;;;;;;;;;15.30;99.90;;;;;;8435235;28;19924;-73
2023/06/06 06:45:47;;;;;;;;;;;15.50;99.90;;;;;;8428786;28;19924;-72
2023/06/06 06:50:10;;;;;;;;;;;15.50;99.90;;;;;;8441704;28;20395;-72
2023/06/06 06:54:12;;;;;;;;;;;15.60;99.90;;;;;;8434538;28;20002;-72
2023/06/06 06:58:22;;;;;;;;;;;15.70;99.90;;;;;;8409795;28;20379;-72
2023/06/06 07:02:26;;;;;;;;;;;15.70;99.90;;;;;;8441692;28;20349;-72
2023/06/06 07:06:32;;;;;;;;;;;15.80;99.90;;;;;;8446951;28;19925;-72
2023/06/06 07:10:35;;;;;;;;;;;15.90;99.90;;;;;;8416028;28;19932;-73
2023/06/06 07:14:37;;;;;;;;;;;16.00;99.90;;;;;;8429516;28;19923;-72
2023/06/06 07:18:38;;;;;;;;;;;16.10;99.90;;;;;;8407832;28;19928;-72
2023/06/06 07:22:57;;;;;;;;;;;16.20;99.90;;;;;;8432999;28;19920;-73
2023/06/06 07:26:59;;;;;;;;;;;16.30;99.90;;;;;;8462116;28;19973;-72
2023/06/06 07:31:02;;;;;;;;;;;16.30;99.90;;;;;;8452833;28;20435;-72
2023/06/06 07:35:04;;;;;;;;;;;16.40;99.90;;;;;;8454145;28;19932;-72
2023/06/06 07:39:05;;;;;;;;;;;16.50;99.90;;;;;;8454581;28;19924;-72
2023/06/06 07:43:27;;;;;;;;;;;16.70;99.90;;;;;;8443702;28;19930;-72
2023/06/06 07:47:29;;;;;;;;;;;16.80;99.90;;;;;;8454671;28;20371;-72
2023/06/06 07:51:30;;;;;;;;;;;16.90;99.90;;;;;;8440871;28;19940;-72
2023/06/06 07:55:32;;;;;;;;;;;16.90;99.90;;;;;;8463525;28;20387;-73
2023/06/06 07:59:34;;;;;;;;;;;17.00;99.90;;;;;;8462961;28;19931;-72
2023/06/06 08:03:36;;;;;;;;;;;17.10;99.90;;;;;;8442623;28;21306;-73
2023/06/06 08:07:38;;;;;;;;;;;17.20;99.90;;;;;;8429137;28;20346;-72
2023/06/06 08:11:40;;;;;;;;;;;17.20;99.90;;;;;;8437893;28;19934;-72
2023/06/06 08:15:41;;;;;;;;;;;17.30;99.90;;;;;;8430613;28;20424;-72
2023/06/06 08:19:43;;;;;;;;;;;17.40;99.90;;;;;;8421600;28;20287;-72
2023/06/06 08:23:45;;;;;;;;;;;17.50;99.90;;;;;;8420666;28;20015;-72
2023/06/06 08:27:46;;;;;;;;;;;17.50;99.90;;;;;;8408475;28;20295;-73
2023/06/06 08:31:48;;;;;;;;;;;17.50;99.90;;;;;;8401306;28;19924;-72
2023/06/06 08:36:08;;;;;;;;;;;17.60;99.90;;;;;;8425843;28;19923;-72
2023/06/06 08:40:11;;;;;;;;;;;17.70;99.90;;;;;;8399362;28;19924;-73
2023/06/06 08:48:34;;;;;;;;;;;17.90;99.90;;;;;;8424462;28;19928;-72
2023/06/06 08:52:36;;;;;;;;;;;18.00;99.90;;;;;;8422374;28;20292;-72
2023/06/06 08:56:56;;;;;;;;;;;18.00;99.90;;;;;;8421739;28;19931;-72
2023/06/06 09:00:59;;;;;;;;;;;18.10;99.90;;;;;;8431494;28;19928;-72
2023/06/06 09:05:00;;;;;;;;;;;18.20;99.90;;;;;;8424471;28;19924;-72
2023/06/06 09:09:20;;;;;;;;;;;18.20;99.90;;;;;;8382405;28;19924;-72
2023/06/06 09:13:22;;;;;;;;;;;18.30;99.90;;;;;;8399953;28;19925;-72
2023/06/06 09:17:24;;;;;;;;;;;18.40;99.90;;;;;;8404948;28;19955;-71
2023/06/06 09:21:32;;;;;;;;;;;18.50;99.90;;;;;;8407809;28;19951;-73
2023/06/06 09:25:34;;;;;;;;;;;18.60;99.90;;;;;;8405068;28;19924;-73
2023/06/06 09:29:39;;;;;;;;;;;18.70;99.90;;;;;;8406732;28;20042;-73
2023/06/06 09:33:41;;;;;;;;;;;18.80;99.90;;;;;;8408887;28;19931;-73
2023/06/06 09:46:26;;;;;;;;;;;19.00;99.90;;;;;;8408527;28;19936;-73
2023/06/06 09:50:29;;;;;;;;;;;19.00;99.90;;;;;;8421984;27;19939;-73
2023/06/06 09:54:55;;;;;;;;;;;19.10;99.90;;;;;;8403682;28;19982;-73
2023/06/06 09:58:57;;;;;;;;;;;19.20;99.90;;;;;;8397137;28;20387;-73
2023/06/06 10:07:23;;;;;;;;;;;19.30;99.90;;;;;;8404291;28;19960;-72
2023/06/06 10:11:25;;;;;;;;;;;19.40;99.90;;;;;;8406282;28;19924;-73
2023/06/06 10:15:27;;;;;;;;;;;19.40;99.90;;;;;;8408447;28;19932;-72
2023/06/06 10:19:30;;;;;;;;;;;19.50;99.90;;;;;;8416277;28;19928;-72
2023/06/06 10:23:32;;;;;;;;;;;19.50;99.90;;;;;;8405830;28;19977;-73
2023/06/06 10:27:54;;;;;;;;;;;19.60;99.90;;;;;;8415689;28;20043;-73
2023/06/06 10:31:57;;;;;;;;;;;19.70;99.90;;;;;;8386537;28;20284;-73
2023/06/06 10:36:02;;;;;;;;;;;19.80;99.90;;;;;;8408022;28;19934;-73
2023/06/06 10:40:22;;;;;;;;;;;19.90;99.90;;;;;;8387198;28;19923;-73
2023/06/06 10:44:25;;;;;;;;;;;19.90;99.90;;;;;;8411985;28;20291;-73
2023/06/06 10:48:46;;;;;;;;;;;20.00;99.90;;;;;;8409000;28;19955;-73
2023/06/06 10:53:07;;;;;;;;;;;20.10;99.90;;;;;;8415527;28;19924;-73
2023/06/06 10:57:14;;;;;;;;;;;20.10;99.90;;;;;;8406048;28;20751;-73
2023/06/06 11:01:17;;;;;;;;;;;20.10;99.90;;;;;;8432377;27;19928;-73
2023/06/06 11:05:38;;;;;;;;;;;20.10;99.90;;;;;;8412453;28;19970;-73
2023/06/06 11:09:41;;;;;;;;;;;20.20;99.90;;;;;;8404250;28;20299;-72
2023/06/06 11:13:53;;;;;;;;;;;20.30;99.90;;;;;;8411855;28;19926;-72
2023/06/06 11:18:05;;;;;;;;;;;20.40;99.90;;;;;;8442541;27;19924;-72
2023/06/06 11:22:18;;;;;;;;;;;20.50;99.90;;;;;;8410357;28;19928;-73
2023/06/06 11:26:21;;;;;;;;;;;20.60;99.90;;;;;;8396097;28;19928;-72
2023/06/06 11:30:24;;;;;;;;;;;20.70;99.90;;;;;;8411663;28;19978;-72
2023/06/06 11:34:26;;;;;;;;;;;20.80;99.90;;;;;;8433569;28;19924;-72
2023/06/06 11:38:27;;;;;;;;;;;20.80;99.90;;;;;;8406817;28;20267;-72
2023/06/06 11:42:29;;;;;;;;;;;21.00;99.90;;;;;;8409780;28;20330;-73
2023/06/06 11:46:49;;;;;;;;;;;21.00;99.90;;;;;;8412755;28;19923;-72
2023/06/06 11:50:51;;;;;;;;;;;21.10;99.90;;;;;;8408522;28;19939;-72
2023/06/06 11:54:53;;;;;;;;;;;21.20;99.90;;;;;;8409599;28;19978;-73
2023/06/06 11:58:55;;;;;;;;;;;21.30;99.90;;;;;;8410336;28;19928;-72
2023/06/06 12:02:59;;;;;;;;;;;21.40;99.90;;;;;;8412701;28;19928;-72
2023/06/06 12:07:05;;;;;;;;;;;21.50;99.90;;;;;;8408008;28;19931;-72
2023/06/06 12:11:22;;;;;;;;;;;21.60;99.90;;;;;;8408704;28;19936;-73
2023/06/06 12:15:28;;;;;;;;;;;21.60;99.90;;;;;;8415267;28;19925;-73
2023/06/06 12:19:29;;;;;;;;;;;21.70;99.90;;;;;;8414213;28;19928;-73
2023/06/06 12:23:31;;;;;;;;;;;21.70;99.90;;;;;;8412012;28;20364;-73
2023/06/06 12:27:36;;;;;;;;;;;21.70;99.90;;;;;;8414892;28;19928;-73
2023/06/06 12:31:40;;;;;;;;;;;21.80;99.90;;;;;;8410768;28;19932;-73
2023/06/06 12:35:44;;;;;;;;;;;21.90;99.90;;;;;;8409122;28;19930;-73
2023/06/06 12:39:46;;;;;;;;;;;22.00;99.90;;;;;;8408214;28;20260;-72
2023/06/06 12:43:48;;;;;;;;;;;22.00;99.90;;;;;;8409604;28;19932;-72
2023/06/06 12:47:51;;;;;;;;;;;21.90;99.90;;;;;;8407920;28;20398;-72
2023/06/06 12:51:52;;;;;;;;;;;21.90;99.90;;;;;;8406510;28;19976;-72
2023/06/06 12:55:54;;;;;;;;;;;22.00;99.90;;;;;;8404634;28;19978;-72
2023/06/06 12:59:56;;;;;;;;;;;22.00;99.90;;;;;;8417196;28;19958;-73
2023/06/06 13:03:57;;;;;;;;;;;22.10;99.90;;;;;;8409025;28;19988;-73
2023/06/06 13:08:00;;;;;;;;;;;22.10;99.90;;;;;;8406436;28;19928;-72
2023/06/06 13:12:02;;;;;;;;;;;22.10;99.90;;;;;;8403064;28;19924;-73
2023/06/06 13:16:04;;;;;;;;;;;22.10;99.90;;;;;;8390437;28;20317;-73
2023/06/06 13:20:06;;;;;;;;;;;22.10;99.90;;;;;;8408776;28;19940;-73
2023/06/06 13:24:08;;;;;;;;;;;22.10;99.90;;;;;;8408175;28;20549;-73
2023/06/06 13:28:10;;;;;;;;;;;22.20;99.90;;;;;;8420299;28;19924;-73
2023/06/06 13:32:13;;;;;;;;;;;22.20;99.90;;;;;;8404726;28;19929;-73
2023/06/06 13:36:14;;;;;;;;;;;22.30;99.90;;;;;;8404421;28;19928;-73
2023/06/06 13:40:16;;;;;;;;;;;22.30;99.90;;;;;;8407955;28;19924;-72
2023/06/06 13:44:18;;;;;;;;;;;22.30;99.90;;;;;;8405199;28;20280;-73
2023/06/06 13:48:20;;;;;;;;;;;22.30;99.90;;;;;;8387305;28;20004;-73
2023/06/06 13:52:21;;;;;;;;;;;22.30;99.90;;;;;;8390318;28;19924;-72
2023/06/06 13:56:25;;;;;;;;;;;22.30;99.90;;;;;;8405490;28;19928;-73
2023/06/06 14:00:26;;;;;;;;;;;22.40;99.90;;;;;;8403452;28;19931;-72
2023/06/06 14:04:28;;;;;;;;;;;22.40;99.90;;;;;;8408032;28;19928;-72
2023/06/06 14:08:30;;;;;;;;;;;22.40;99.90;;;;;;8399258;28;19940;-72
2023/06/06 14:12:31;;;;;;;;;;;22.50;99.90;;;;;;8402747;28;19978;-73
2023/06/06 14:16:33;;;;;;;;;;;22.60;99.90;;;;;;8402440;28;19991;-72
2023/06/06 14:20:48;;;;;;;;;;;22.60;99.90;;;;;;8405287;28;19975;-72
2023/06/06 14:24:51;;;;;;;;;;;22.60;99.90;;;;;;8404134;28;20014;-72
2023/06/06 14:28:52;;;;;;;;;;;22.70;99.90;;;;;;8402879;28;20418;-73
2023/06/06 14:32:54;;;;;;;;;;;22.80;99.90;;;;;;8408460;28;19932;-72
2023/06/06 14:36:56;;;;;;;;;;;22.80;99.90;;;;;;8402904;28;19932;-73
2023/06/06 14:40:59;;;;;;;;;;;22.90;99.90;;;;;;8421669;28;20366;-73
2023/06/06 14:45:01;;;;;;;;;;;23.00;99.90;;;;;;8403676;28;19931;-73
2023/06/06 14:49:02;;;;;;;;;;;23.00;99.90;;;;;;8400601;28;19985;-73
2023/06/06 14:53:04;;;;;;;;;;;23.10;99.90;;;;;;8402771;28;19924;-72
2023/06/06 14:57:06;;;;;;;;;;;23.10;99.90;;;;;;8397207;28;19924;-72
2023/06/06 15:01:08;;;;;;;;;;;23.10;99.90;;;;;;8403989;28;20008;-72
2023/06/06 15:05:10;;;;;;;;;;;23.20;99.90;;;;;;8408679;28;19931;-72
2023/06/06 15:09:12;;;;;;;;;;;23.20;99.90;;;;;;8401287;28;19924;-72
2023/06/06 15:13:13;;;;;;;;;;;23.20;99.90;;;;;;8397897;28;19925;-73
2023/06/06 15:17:15;;;;;;;;;;;23.20;99.90;;;;;;8402336;28;19932;-72
2023/06/06 15:21:17;;;;;;;;;;;23.30;99.90;;;;;;8405928;28;19924;-73
2023/06/06 15:25:18;;;;;;;;;;;23.30;99.90;;;;;;8391579;28;19928;-73
2023/06/06 15:29:20;;;;;;;;;;;23.50;99.90;;;;;;8406082;28;19924;-72
2023/06/06 15:33:22;;;;;;;;;;;23.50;99.90;;;;;;8406232;28;19925;-72
2023/06/06 15:37:24;;;;;;;;;;;23.60;99.90;;;;;;8419830;27;19928;-72
2023/06/06 15:41:27;;;;;;;;;;;23.70;99.90;;;;;;8406829;28;19924;-72
2023/06/06 15:45:28;;;;;;;;;;;23.70;99.90;;;;;;8405896;28;20757;-72
2023/06/06 15:49:30;;;;;;;;;;;23.80;99.90;;;;;;8406442;28;19928;-72
2023/06/06 15:53:32;;;;;;;;;;;24.00;99.90;;;;;;8411432;28;19924;-74
2023/06/06 15:57:33;;;;;;;;;;;24.10;99.90;;;;;;8411236;28;19924;-73
2023/06/06 16:01:35;;;;;;;;;;;24.20;99.90;;;;;;8405167;28;19943;-72
2023/06/06 16:05:37;;;;;;;;;;;24.20;99.90;;;;;;8396084;28;19929;-73
2023/06/06 16:09:39;;;;;;;;;;;24.30;99.90;;;;;;8385468;28;19939;-73
2023/06/06 16:13:40;;;;;;;;;;;24.50;99.90;;;;;;8401265;28;20331;-72
2023/06/06 16:17:42;;;;;;;;;;;24.50;99.90;;;;;;8405448;28;20299;-72
2023/06/06 16:21:44;;;;;;;;;;;24.70;99.90;;;;;;8406646;28;19928;-72
2023/06/06 16:25:46;;;;;;;;;;;25.00;99.90;;;;;;8424591;27;19947;-72
2023/06/06 16:29:48;;;;;;;;;;;25.20;99.90;;;;;;8406933;28;19924;-72
2023/06/06 16:33:49;;;;;;;;;;;25.30;99.90;;;;;;8410234;28;19940;-72
2023/06/06 16:37:51;;;;;;;;;;;25.50;99.90;;;;;;8402533;28;19932;-72
2023/06/06 16:41:53;;;;;;;;;;;25.60;99.90;;;;;;8403772;28;19924;-73
2023/06/06 16:45:54;;;;;;;;;;;25.70;99.90;;;;;;8402938;28;20346;-72
2023/06/06 16:49:56;;;;;;;;;;;25.70;99.90;;;;;;8399834;28;19932;-73
2023/06/06 16:53:58;;;;;;;;;;;25.70;99.90;;;;;;8397020;28;20383;-73
2023/06/06 16:58:00;;;;;;;;;;;25.70;99.90;;;;;;8404759;28;19939;-73
2023/06/06 17:02:02;;;;;;;;;;;25.70;99.90;;;;;;8398918;28;19977;-73
2023/06/06 17:06:04;;;;;;;;;;;25.60;99.90;;;;;;8403310;28;20061;-73
2023/06/06 17:10:06;;;;;;;;;;;25.30;99.90;;;;;;8402403;28;19979;-73
2023/06/06 17:14:08;;;;;;;;;;;25.10;99.90;;;;;;8415667;27;19924;-73
2023/06/06 17:18:09;;;;;;;;;;;24.80;99.90;;;;;;8401772;28;19987;-72
2023/06/06 17:22:11;;;;;;;;;;;24.50;99.90;;;;;;8397365;28;20368;-72
2023/06/06 17:26:15;;;;;;;;;;;24.20;99.90;;;;;;8402365;28;19932;-71
2023/06/06 17:30:17;;;;;;;;;;;24.00;99.90;;;;;;8399989;28;19955;-73
2023/06/06 17:34:20;;;;;;;;;;;23.70;99.90;;;;;;8402422;28;19928;-73
2023/06/06 17:38:21;;;;;;;;;;;23.40;99.90;;;;;;8402931;28;20444;-73
2023/06/06 17:42:23;;;;;;;;;;;23.20;99.90;;;;;;8406611;28;19924;-73
2023/06/06 17:46:28;;;;;;;;;;;23.00;99.90;;;;;;8421332;27;19943;-72
2023/06/06 17:50:31;;;;;;;;;;;22.90;99.90;;;;;;8401353;28;19960;-72
2023/06/06 17:54:32;;;;;;;;;;;22.80;99.90;;;;;;8398926;28;20301;-72
2023/06/06 17:58:34;;;;;;;;;;;22.70;99.90;;;;;;8399607;28;19924;-73
2023/06/06 18:02:36;;;;;;;;;;;22.60;99.90;;;;;;8416013;28;19925;-72
2023/06/06 18:06:37;;;;;;;;;;;22.60;99.90;;;;;;8403507;28;20656;-72
2023/06/06 18:10:39;;;;;;;;;;;22.60;99.90;;;;;;8407332;28;19928;-73
2023/06/06 18:14:41;;;;;;;;;;;22.50;99.90;;;;;;8401773;28;19932;-74
2023/06/06 18:18:42;;;;;;;;;;;22.40;99.90;;;;;;8394817;28;19924;-72
2023/06/06 18:22:44;;;;;;;;;;;22.30;99.90;;;;;;8403022;28;22350;-72
2023/06/06 18:26:46;;;;;;;;;;;22.10;99.90;;;;;;8412421;28;19989;-72
2023/06/06 18:30:47;;;;;;;;;;;21.90;99.90;;;;;;8399569;28;19993;-73
2023/06/06 18:34:50;;;;;;;;;;;21.80;99.90;;;;;;8407748;28;20034;-73
2023/06/06 18:38:52;;;;;;;;;;;21.80;99.90;;;;;;8396340;28;20398;-72
2023/06/06 18:42:53;;;;;;;;;;;21.70;99.90;;;;;;8394635;28;19932;-72
2023/06/06 18:46:55;;;;;;;;;;;21.60;99.90;;;;;;8401531;28;19924;-72
2023/06/06 18:50:57;;;;;;;;;;;21.60;99.90;;;;;;8394961;28;20020;-72
2023/06/06 18:54:58;;;;;;;;;;;21.50;99.90;;;;;;8397472;28;19939;-72
2023/06/06 18:59:07;;;;;;;;;;;21.40;99.90;;;;;;8395107;28;19935;-72
2023/06/06 19:03:09;;;;;;;;;;;21.30;99.90;;;;;;8395805;28;19939;-73
2023/06/06 19:07:12;;;;;;;;;;;21.20;99.90;;;;;;8405958;28;19955;-72
2023/06/06 19:11:15;;;;;;;;;;;21.10;99.90;;;;;;8406020;28;19928;-73
2023/06/06 19:15:17;;;;;;;;;;;21.00;99.90;;;;;;8404235;28;19928;-72
2023/06/06 19:19:19;;;;;;;;;;;21.00;99.90;;;;;;8407006;28;19936;-72
2023/06/06 19:23:20;;;;;;;;;;;20.90;99.90;;;;;;8401013;28;20388;-72
2023/06/06 19:27:22;;;;;;;;;;;20.80;99.90;;;;;;8401788;28;20396;-72
2023/06/06 19:31:24;;;;;;;;;;;20.70;99.90;;;;;;8407108;28;20372;-73
2023/06/06 19:35:26;;;;;;;;;;;20.60;99.90;;;;;;8404133;28;20038;-72
2023/06/06 19:39:28;;;;;;;;;;;20.40;99.90;;;;;;8405472;28;19924;-72
2023/06/06 19:48:24;;;;;;;;;;;20.20;99.90;;;;;;8411114;28;19951;-72
2023/06/06 19:52:26;;;;;;;;;;;20.10;99.90;;;;;;8411383;28;20633;-72
2023/06/06 19:56:28;;;;;;;;;;;20.00;99.90;;;;;;8404938;28;19929;-73
2023/06/06 20:00:29;;;;;;;;;;;19.90;99.90;;;;;;8403616;28;19924;-73
2023/06/06 20:04:32;;;;;;;;;;;19.80;99.90;;;;;;8404738;28;20391;-73
2023/06/06 20:08:33;;;;;;;;;;;19.70;99.90;;;;;;8410301;28;19923;-73
2023/06/06 20:12:36;;;;;;;;;;;19.60;99.90;;;;;;8400209;28;20613;-73
2023/06/06 20:16:38;;;;;;;;;;;19.50;99.90;;;;;;8403932;28;19986;-72
2023/06/06 20:20:41;;;;;;;;;;;19.40;99.90;;;;;;8405619;28;19932;-73
2023/06/06 20:24:43;;;;;;;;;;;19.20;99.90;;;;;;8405685;28;19935;-72
2023/06/06 20:28:45;;;;;;;;;;;19.10;99.90;;;;;;8405606;28;19928;-73
2023/06/06 20:32:46;;;;;;;;;;;19.00;99.90;;;;;;8403519;28;20293;-72
2023/06/06 20:36:48;;;;;;;;;;;19.00;99.90;;;;;;8409026;28;19924;-72
2023/06/06 20:40:50;;;;;;;;;;;19.00;99.90;;;;;;8417255;28;19929;-72
2023/06/06 20:44:52;;;;;;;;;;;18.90;99.90;;;;;;8406956;28;20671;-73
2023/06/06 20:48:54;;;;;;;;;;;18.80;99.90;;;;;;8395036;28;19982;-73
2023/06/06 21:03:03;;;;;;;;;;;18.70;99.90;;;;;;8415502;28;19919;-73
2023/06/06 21:07:05;;;;;;;;;;;18.70;99.90;;;;;;8423905;28;20291;-72
2023/06/06 21:11:07;;;;;;;;;;;18.70;99.90;;;;;;8438053;27;19930;-73
2023/06/06 21:15:09;;;;;;;;;;;18.70;99.90;;;;;;8424020;28;19924;-72
2023/06/06 21:19:11;;;;;;;;;;;18.60;99.90;;;;;;8429175;28;19993;-72
2023/06/06 21:23:13;;;;;;;;;;;18.50;99.90;;;;;;8427810;28;19985;-72
2023/06/06 21:27:15;;;;;;;;;;;18.40;99.90;;;;;;8428194;28;19935;-72
2023/06/06 21:41:25;;;;;;;;;;;18.30;99.90;;;;;;8418467;28;19923;-71
2023/06/06 21:45:27;;;;;;;;;;;18.20;99.90;;;;;;8426723;28;19977;-72
2023/06/06 21:49:28;;;;;;;;;;;18.10;99.90;;;;;;8414276;28;20295;-72
2023/06/06 22:03:37;;;;;;;;;;;18.00;99.80;;;;;;8419013;28;19957;-72
2023/06/06 22:07:42;;;;;;;;;;;18.00;99.90;;;;;;8420733;28;19935;-72
2023/06/06 22:11:46;;;;;;;;;;;17.90;99.90;;;;;;8420566;28;20385;-72
2023/06/06 22:15:48;;;;;;;;;;;17.80;99.80;;;;;;8419990;28;19932;-73
2023/06/06 22:19:50;;;;;;;;;;;17.70;99.80;;;;;;8407075;28;19928;-73
2023/06/06 22:23:52;;;;;;;;;;;17.60;99.80;;;;;;8429219;28;19928;-72
2023/06/06 22:27:55;;;;;;;;;;;17.60;99.80;;;;;;8425061;28;20436;-73
2023/06/06 22:31:57;;;;;;;;;;;17.50;99.80;;;;;;8403420;28;19940;-72
2023/06/06 22:35:58;;;;;;;;;;;17.50;99.80;;;;;;8413811;28;20034;-72
2023/06/06 22:40:00;;;;;;;;;;;17.40;99.70;;;;;;8422093;28;19932;-72
2023/06/06 22:44:02;;;;;;;;;;;17.40;99.70;;;;;;8422169;28;19936;-72
2023/06/06 22:48:04;;;;;;;;;;;17.40;99.70;;;;;;8401144;28;19923;-72
2023/06/06 22:52:06;;;;;;;;;;;17.40;99.60;;;;;;8417623;28;19930;-71
2023/06/06 22:56:07;;;;;;;;;;;17.30;99.60;;;;;;8423408;28;19934;-73
2023/06/06 23:00:09;;;;;;;;;;;17.20;99.50;;;;;;8421333;28;19924;-73
2023/06/06 23:04:11;;;;;;;;;;;17.10;99.50;;;;;;8392820;28;19924;-73
2023/06/06 23:08:12;;;;;;;;;;;17.00;99.50;;;;;;8426246;28;19986;-73
2023/06/06 23:12:14;;;;;;;;;;;16.90;99.60;;;;;;8429001;28;19928;-72
2023/06/06 23:16:16;;;;;;;;;;;16.80;99.60;;;;;;8439218;28;19935;-72
2023/06/06 23:20:18;;;;;;;;;;;16.70;99.60;;;;;;8427951;28;19923;-72
2023/06/06 23:24:20;;;;;;;;;;;16.70;99.60;;;;;;8419922;28;20361;-72
2023/06/06 23:28:21;;;;;;;;;;;16.70;99.60;;;;;;8422841;28;19976;-72
2023/06/06 23:32:23;;;;;;;;;;;16.60;99.60;;;;;;8429984;28;19924;-72
2023/06/06 23:36:25;;;;;;;;;;;16.60;99.50;;;;;;8406071;28;19969;-72
2023/06/06 23:40:26;;;;;;;;;;;16.60;99.50;;;;;;8405053;28;19924;-73
2023/06/06 23:44:28;;;;;;;;;;;16.60;99.50;;;;;;8425761;28;19924;-72
2023/06/06 23:48:30;;;;;;;;;;;16.60;99.40;;;;;;8424764;28;19932;-72
2023/06/06 23:52:31;;;;;;;;;;;16.50;99.40;;;;;;8435661;27;19927;-72
2023/06/06 23:56:33;;;;;;;;;;;16.50;99.40;;;;;;8436930;28;19935;-72
